Time;durP1;ratioP1;P1;durP2;ratioP2;P2;SDS_P1;SDS_P2;PMS_P1;PMS_P2;Temp;Humidity;BMP_temperature;BMP_pressure;BME280_temperature;BME280_humidity;BME280_pressure;Samples;Min_cycle;Max_cycle;Signal;HPM_P1;HPM_P2
2023/09/26 00:01:58;;;;;;;9.98;5.65;;;;;;;;;;6180296;22;20172;-89
2023/09/26 00:05:05;;;;;;;9.32;5.30;;;;;;;;;;6180745;23;20492;-90
2023/09/26 00:08:12;;;;;;;8.30;5.20;;;;;;;;;;6180590;23;20176;-89
2023/09/26 00:11:17;;;;;;;8.50;5.20;;;;;;;;;;6180313;23;20522;-90
2023/09/26 00:14:22;;;;;;;8.95;5.00;;;;;;;;;;6181174;23;20172;-91
2023/09/26 00:17:28;;;;;;;11.32;5.32;;;;;;;;;;6178910;23;20630;-89
2023/09/26 00:20:35;;;;;;;12.35;5.68;;;;;;;;;;6181143;22;20167;-89
2023/09/26 00:23:44;;;;;;;7.65;5.22;;;;;;;;;;6181958;23;20531;-90
2023/09/26 00:26:49;;;;;;;9.85;5.20;;;;;;;;;;6181728;23;20188;-91
2023/09/26 00:29:54;;;;;;;7.57;4.80;;;;;;;;;;6180594;23;20200;-90
2023/09/26 00:33:00;;;;;;;11.50;5.72;;;;;;;;;;6179377;23;20635;-93
2023/09/26 00:36:08;;;;;;;10.10;5.80;;;;;;;;;;6180288;23;20156;-91
2023/09/26 00:39:15;;;;;;;11.20;6.20;;;;;;;;;;6181109;23;20175;-90
2023/09/26 00:42:20;;;;;;;13.10;6.30;;;;;;;;;;6181008;23;20288;-91
2023/09/26 00:45:25;;;;;;;14.10;5.85;;;;;;;;;;6181358;23;20223;-89
2023/09/26 00:48:31;;;;;;;9.35;5.60;;;;;;;;;;6181078;23;20611;-88
2023/09/26 00:51:37;;;;;;;10.68;6.13;;;;;;;;;;6181083;23;20160;-88
2023/09/26 00:54:44;;;;;;;13.35;5.93;;;;;;;;;;6182687;23;20171;-91
2023/09/26 00:57:49;;;;;;;14.40;7.20;;;;;;;;;;6181288;23;20172;-91
2023/09/26 01:00:54;;;;;;;14.00;7.10;;;;;;;;;;6181529;23;20172;-92
2023/09/26 01:04:00;;;;;;;13.25;7.10;;;;;;;;;;6182259;23;20172;-89
2023/09/26 01:07:06;;;;;;;12.88;7.18;;;;;;;;;;6181074;23;20167;-89
2023/09/26 01:10:14;;;;;;;10.52;6.68;;;;;;;;;;6181799;23;20195;-89
2023/09/26 01:13:19;;;;;;;14.52;7.00;;;;;;;;;;6181462;23;20239;-91
2023/09/26 01:16:24;;;;;;;13.55;7.47;;;;;;;;;;6181351;23;20183;-92
2023/09/26 01:19:29;;;;;;;13.57;7.35;;;;;;;;;;6181204;23;20167;-88
2023/09/26 01:22:34;;;;;;;15.40;7.25;;;;;;;;;;6180411;23;20191;-90
2023/09/26 01:25:41;;;;;;;14.65;7.45;;;;;;;;;;6180831;23;20155;-90
2023/09/26 01:28:46;;;;;;;12.77;7.03;;;;;;;;;;6180489;23;20247;-89
2023/09/26 01:31:54;;;;;;;11.07;6.85;;;;;;;;;;6182052;23;20247;-90
2023/09/26 01:34:58;;;;;;;12.35;7.05;;;;;;;;;;6181030;23;20172;-90
2023/09/26 01:38:04;;;;;;;12.38;7.18;;;;;;;;;;6180313;23;20171;-93
2023/09/26 01:41:11;;;;;;;17.77;7.53;;;;;;;;;;6181738;22;20167;-91
2023/09/26 01:44:15;;;;;;;11.95;7.28;;;;;;;;;;6182476;23;20156;-91
2023/09/26 01:47:32;;;;;;;15.75;7.50;;;;;;;;;;6180883;23;20167;-88
2023/09/26 01:50:38;;;;;;;15.20;7.45;;;;;;;;;;6182204;23;20231;-92
2023/09/26 01:53:43;;;;;;;16.38;7.43;;;;;;;;;;6182372;23;20163;-90
2023/09/26 01:56:50;;;;;;;11.73;6.85;;;;;;;;;;6183229;23;20171;-93
2023/09/26 01:59:55;;;;;;;16.00;7.30;;;;;;;;;;6182031;23;20515;-94
2023/09/26 02:03:01;;;;;;;11.90;6.40;;;;;;;;;;6181997;23;20211;-89
2023/09/26 02:06:07;;;;;;;12.13;6.68;;;;;;;;;;6183205;23;20176;-92
2023/09/26 02:09:12;;;;;;;14.23;7.10;;;;;;;;;;6182407;23;20171;-90
2023/09/26 02:12:18;;;;;;;14.82;7.18;;;;;;;;;;6183359;23;20191;-91
2023/09/26 02:15:23;;;;;;;13.52;7.40;;;;;;;;;;6183270;23;20619;-92
2023/09/26 02:18:29;;;;;;;15.40;7.50;;;;;;;;;;6183353;23;20152;-94
2023/09/26 02:21:34;;;;;;;9.30;5.93;;;;;;;;;;6184379;23;20214;-93
2023/09/26 02:24:41;;;;;;;11.05;6.35;;;;;;;;;;6183699;23;20164;-91
2023/09/26 02:27:49;;;;;;;12.65;6.00;;;;;;;;;;6183163;23;20156;-91
2023/09/26 02:30:55;;;;;;;13.02;6.95;;;;;;;;;;6181752;23;20191;-92
2023/09/26 02:34:00;;;;;;;13.63;6.82;;;;;;;;;;6182952;23;20221;-90
2023/09/26 02:37:06;;;;;;;16.45;6.88;;;;;;;;;;6183566;22;20156;-91
2023/09/26 02:40:11;;;;;;;12.93;6.43;;;;;;;;;;6182452;23;20300;-91
2023/09/26 02:43:19;;;;;;;19.25;6.45;;;;;;;;;;6182686;23;20175;-91
2023/09/26 02:46:24;;;;;;;11.25;6.60;;;;;;;;;;6182769;23;20211;-92
2023/09/26 02:49:29;;;;;;;18.50;6.45;;;;;;;;;;6182339;23;20168;-92
2023/09/26 02:52:36;;;;;;;9.68;6.25;;;;;;;;;;6181875;23;20168;-92
2023/09/26 02:55:41;;;;;;;10.55;5.68;;;;;;;;;;6182090;23;20167;-91
2023/09/26 02:58:47;;;;;;;11.43;5.32;;;;;;;;;;6181838;23;20172;-91
2023/09/26 03:01:53;;;;;;;10.98;5.47;;;;;;;;;;6182279;23;20171;-89
2023/09/26 03:04:58;;;;;;;12.18;5.18;;;;;;;;;;6182440;23;20179;-92
2023/09/26 03:08:05;;;;;;;13.43;5.97;;;;;;;;;;6182299;23;20231;-89
2023/09/26 03:11:10;;;;;;;15.95;6.13;;;;;;;;;;6182549;23;20223;-90
2023/09/26 03:14:16;;;;;;;16.45;6.40;;;;;;;;;;6182239;23;20171;-90
2023/09/26 03:17:22;;;;;;;19.13;6.22;;;;;;;;;;6181889;23;20180;-89
2023/09/26 03:20:27;;;;;;;13.55;6.53;;;;;;;;;;6182904;23;20183;-94
2023/09/26 03:23:34;;;;;;;34.00;7.63;;;;;;;;;;6182026;23;20219;-91
2023/09/26 03:26:39;;;;;;;18.20;7.68;;;;;;;;;;6182129;23;20211;-93
2023/09/26 03:29:46;;;;;;;18.95;6.75;;;;;;;;;;6180503;22;20167;-92
2023/09/26 03:32:51;;;;;;;15.82;7.50;;;;;;;;;;6182119;23;20216;-92
2023/09/26 03:35:58;;;;;;;15.75;6.43;;;;;;;;;;6183038;23;20281;-92
2023/09/26 03:39:03;;;;;;;19.23;7.03;;;;;;;;;;6181051;23;20166;-91
2023/09/26 03:42:09;;;;;;;17.85;7.20;;;;;;;;;;6182724;22;20201;-92
2023/09/26 03:45:15;;;;;;;14.43;6.00;;;;;;;;;;6182401;23;20179;-92
2023/09/26 03:48:21;;;;;;;12.82;6.57;;;;;;;;;;6182694;23;20215;-91
2023/09/26 03:51:26;;;;;;;10.27;5.80;;;;;;;;;;6182171;23;20245;-90
2023/09/26 03:54:32;;;;;;;11.07;5.35;;;;;;;;;;6183248;23;20188;-92
2023/09/26 03:57:37;;;;;;;11.65;5.93;;;;;;;;;;6184439;23;20152;-90
2023/09/26 04:00:44;;;;;;;10.65;5.30;;;;;;;;;;6184227;22;20172;-90
2023/09/26 04:03:49;;;;;;;9.48;4.80;;;;;;;;;;6183862;23;20314;-90
2023/09/26 04:06:54;;;;;;;16.40;6.72;;;;;;;;;;6182652;23;20171;-93
2023/09/26 04:09:59;;;;;;;13.30;6.55;;;;;;;;;;6182984;23;20163;-93
2023/09/26 04:13:04;;;;;;;14.10;6.47;;;;;;;;;;6183145;23;20164;-91
2023/09/26 04:16:12;;;;;;;16.50;6.50;;;;;;;;;;6183922;23;20172;-93
2023/09/26 04:19:17;;;;;;;14.57;6.32;;;;;;;;;;6183179;23;20171;-91
2023/09/26 04:22:22;;;;;;;13.63;6.15;;;;;;;;;;6184143;23;20241;-92
2023/09/26 04:25:30;;;;;;;15.77;5.88;;;;;;;;;;6184929;23;20168;-93
2023/09/26 04:28:35;;;;;;;12.60;5.47;;;;;;;;;;6183110;22;20172;-91
2023/09/26 04:31:42;;;;;;;13.88;6.18;;;;;;;;;;6184791;23;20245;-91
2023/09/26 04:34:47;;;;;;;13.00;5.80;;;;;;;;;;6183512;23;20168;-91
2023/09/26 04:37:53;;;;;;;12.90;6.20;;;;;;;;;;6182585;23;20175;-91
2023/09/26 04:41:02;;;;;;;12.07;6.43;;;;;;;;;;6185695;23;20255;-89
2023/09/26 04:44:08;;;;;;;12.27;6.57;;;;;;;;;;6183388;23;20176;-90
2023/09/26 04:47:15;;;;;;;18.95;6.35;;;;;;;;;;6183435;23;20171;-89
2023/09/26 04:50:23;;;;;;;15.25;6.47;;;;;;;;;;6182145;23;20195;-93
2023/09/26 04:53:28;;;;;;;18.85;7.47;;;;;;;;;;6183394;22;20163;-93
2023/09/26 04:56:33;;;;;;;14.10;7.07;;;;;;;;;;6182177;23;20246;-92
2023/09/26 04:59:38;;;;;;;12.82;6.32;;;;;;;;;;6182874;23;20163;-94
2023/09/26 05:02:45;;;;;;;29.73;7.30;;;;;;;;;;6182886;23;20168;-93
2023/09/26 05:05:50;;;;;;;16.20;6.68;;;;;;;;;;6182962;23;20180;-91
2023/09/26 05:08:55;;;;;;;11.75;6.50;;;;;;;;;;6178724;23;20219;-93
2023/09/26 05:12:00;;;;;;;13.60;6.25;;;;;;;;;;6182799;23;20326;-90
2023/09/26 05:15:06;;;;;;;17.17;6.70;;;;;;;;;;6183778;23;20176;-92
2023/09/26 05:18:13;;;;;;;20.30;8.52;;;;;;;;;;6181353;23;20167;-92
2023/09/26 05:21:18;;;;;;;19.83;6.90;;;;;;;;;;6184274;23;20168;-92
2023/09/26 05:24:24;;;;;;;17.35;6.80;;;;;;;;;;6180835;23;20167;-91
2023/09/26 05:27:29;;;;;;;17.90;6.95;;;;;;;;;;6182466;23;20171;-92
2023/09/26 05:30:36;;;;;;;14.90;7.35;;;;;;;;;;6182484;23;20235;-93
2023/09/26 05:33:43;;;;;;;23.27;7.80;;;;;;;;;;6182140;23;20164;-94
2023/09/26 05:36:56;;;;;;;25.42;8.18;;;;;;;;;;6183040;23;20240;-93
2023/09/26 05:40:01;;;;;;;15.98;8.05;;;;;;;;;;6179754;23;20207;-91
2023/09/26 05:43:07;;;;;;;15.68;7.40;;;;;;;;;;6181174;23;20167;-91
2023/09/26 05:46:12;;;;;;;17.63;7.03;;;;;;;;;;6179556;23;20167;-92
2023/09/26 05:49:18;;;;;;;21.70;7.45;;;;;;;;;;6181043;23;20211;-93
2023/09/26 05:52:22;;;;;;;23.63;8.05;;;;;;;;;;6181315;23;20203;-92
2023/09/26 05:55:28;;;;;;;19.77;8.77;;;;;;;;;;6181591;23;20171;-91
2023/09/26 05:58:34;;;;;;;19.02;7.82;;;;;;;;;;6184074;23;20224;-89
2023/09/26 06:01:39;;;;;;;19.08;7.80;;;;;;;;;;6181848;23;20171;-95
2023/09/26 06:04:46;;;;;;;14.00;7.60;;;;;;;;;;6181048;23;20604;-89
2023/09/26 06:07:51;;;;;;;12.80;7.68;;;;;;;;;;6179887;23;20227;-90
2023/09/26 06:10:56;;;;;;;17.98;7.38;;;;;;;;;;6179250;23;20666;-90
2023/09/26 06:14:01;;;;;;;18.10;8.32;;;;;;;;;;6179625;23;20172;-92
2023/09/26 06:17:10;;;;;;;19.70;8.20;;;;;;;;;;6184021;23;20172;-91
2023/09/26 06:20:17;;;;;;;18.80;8.32;;;;;;;;;;6184258;23;20156;-93
2023/09/26 06:23:22;;;;;;;14.57;8.77;;;;;;;;;;6183350;23;20295;-93
2023/09/26 06:26:28;;;;;;;34.00;7.82;;;;;;;;;;6182632;23;20171;-92
2023/09/26 06:29:33;;;;;;;51.80;8.45;;;;;;;;;;6181709;23;20151;-93
2023/09/26 06:32:39;;;;;;;17.58;8.27;;;;;;;;;;6184676;23;20195;-93
2023/09/26 06:35:45;;;;;;;19.58;8.73;;;;;;;;;;6182705;23;20167;-90
2023/09/26 06:38:50;;;;;;;20.83;8.38;;;;;;;;;;6182152;23;20216;-93
2023/09/26 06:41:56;;;;;;;17.33;8.18;;;;;;;;;;6181825;23;20619;-94
2023/09/26 06:45:01;;;;;;;21.20;9.63;;;;;;;;;;6181180;23;20168;-93
2023/09/26 06:48:07;;;;;;;17.23;8.60;;;;;;;;;;6183722;23;20259;-90
2023/09/26 06:51:13;;;;;;;21.10;8.05;;;;;;;;;;6183279;23;20572;-92
2023/09/26 06:54:19;;;;;;;22.73;8.73;;;;;;;;;;6182558;23;20197;-93
2023/09/26 06:57:26;;;;;;;17.05;7.85;;;;;;;;;;6184040;23;20612;-90
2023/09/26 07:00:32;;;;;;;14.07;8.10;;;;;;;;;;6182699;23;20172;-90
2023/09/26 07:03:37;;;;;;;26.55;12.27;;;;;;;;;;6182573;23;20220;-92
2023/09/26 07:06:48;;;;;;;18.33;8.43;;;;;;;;;;6201480;23;20211;-93
2023/09/26 07:09:54;;;;;;;14.60;7.43;;;;;;;;;;6182674;23;20233;-92
2023/09/26 07:12:59;;;;;;;18.48;7.97;;;;;;;;;;6182067;23;20172;-95
2023/09/26 07:16:05;;;;;;;12.80;7.18;;;;;;;;;;6181766;23;20664;-92
2023/09/26 07:19:10;;;;;;;17.45;8.10;;;;;;;;;;6180771;22;20614;-93
2023/09/26 07:22:17;;;;;;;14.68;8.20;;;;;;;;;;6181810;23;20241;-92
2023/09/26 07:25:22;;;;;;;16.75;7.38;;;;;;;;;;6181148;23;20171;-91
2023/09/26 07:28:29;;;;;;;17.80;7.57;;;;;;;;;;6181720;23;20287;-92
2023/09/26 07:31:39;;;;;;;16.38;7.50;;;;;;;;;;6181114;23;20195;-92
2023/09/26 07:38:05;;;;;;;15.75;7.53;;;;;;;;;;6184274;23;20168;-92
2023/09/26 07:41:11;;;;;;;15.45;8.23;;;;;;;;;;6187049;23;20191;-92
2023/09/26 07:44:16;;;;;;;15.48;8.13;;;;;;;;;;6186909;23;20152;-92
2023/09/26 07:47:23;;;;;;;15.77;7.60;;;;;;;;;;6182690;23;20167;-91
2023/09/26 07:50:28;;;;;;;15.00;6.50;;;;;;;;;;6182872;22;20168;-94
2023/09/26 07:53:52;;;;;;;12.75;7.07;;;;;;;;;;6185524;23;20220;-91
2023/09/26 07:57:09;;;;;;;14.00;7.40;;;;;;;;;;6186539;23;20175;-93
2023/09/26 08:00:15;;;;;;;12.50;6.85;;;;;;;;;;6186221;23;20196;-92
2023/09/26 08:03:22;;;;;;;12.88;6.50;;;;;;;;;;6186782;23;20241;-93
2023/09/26 08:06:28;;;;;;;12.00;6.63;;;;;;;;;;6185358;23;20172;-93
2023/09/26 08:09:32;;;;;;;15.45;9.75;;;;;;;;;;6183580;23;20166;-91
2023/09/26 08:12:41;;;;;;;13.07;6.57;;;;;;;;;;6183186;23;20226;-93
2023/09/26 08:15:46;;;;;;;16.90;6.93;;;;;;;;;;6182901;23;20156;-94
2023/09/26 08:18:53;;;;;;;12.57;6.65;;;;;;;;;;6183577;23;20160;-93
2023/09/26 08:21:58;;;;;;;27.27;11.73;;;;;;;;;;6184022;23;20175;-93
2023/09/26 08:25:04;;;;;;;30.13;12.82;;;;;;;;;;6198321;23;20168;-92
2023/09/26 08:28:11;;;;;;;25.05;11.00;;;;;;;;;;6199895;23;20163;-91
2023/09/26 08:31:17;;;;;;;22.60;10.23;;;;;;;;;;6200049;23;20220;-92
2023/09/26 08:34:23;;;;;;;26.60;13.00;;;;;;;;;;6203352;22;20164;-93
2023/09/26 08:40:49;;;;;;;15.88;7.80;;;;;;;;;;6183520;23;20172;-92
2023/09/26 08:43:55;;;;;;;15.93;8.10;;;;;;;;;;6185707;23;20168;-91
2023/09/26 08:47:02;;;;;;;15.30;7.55;;;;;;;;;;6184826;23;20212;-94
2023/09/26 08:50:08;;;;;;;13.13;7.22;;;;;;;;;;6185417;23;20219;-91
2023/09/26 08:53:14;;;;;;;15.32;7.20;;;;;;;;;;6187321;22;20234;-94
2023/09/26 08:56:21;;;;;;;13.85;6.97;;;;;;;;;;6187348;23;20284;-92
2023/09/26 08:59:31;;;;;;;15.57;6.80;;;;;;;;;;6185066;23;20172;-92
2023/09/26 09:02:37;;;;;;;12.55;6.47;;;;;;;;;;6184486;23;20172;-93
2023/09/26 09:05:47;;;;;;;16.73;5.93;;;;;;;;;;6186447;23;20168;-93
2023/09/26 09:12:26;;;;;;;8.02;4.57;;;;;;;;;;6183435;23;20215;-91
2023/09/26 09:15:35;;;;;;;8.70;4.30;;;;;;;;;;6183170;23;20212;-91
2023/09/26 09:18:41;;;;;;;11.60;4.25;;;;;;;;;;6185747;23;20495;-93
2023/09/26 09:21:47;;;;;;;9.90;4.75;;;;;;;;;;6183288;22;20171;-89
2023/09/26 09:24:54;;;;;;;10.00;4.82;;;;;;;;;;6184067;23;20221;-93
2023/09/26 09:28:00;;;;;;;9.82;4.53;;;;;;;;;;6184526;22;20177;-95
2023/09/26 09:31:14;;;;;;;8.63;4.50;;;;;;;;;;6186015;23;20167;-94
2023/09/26 09:34:21;;;;;;;13.40;3.78;;;;;;;;;;6188307;23;20176;-93
2023/09/26 09:37:29;;;;;;;9.35;4.45;;;;;;;;;;6187380;23;20168;-92
2023/09/26 09:40:35;;;;;;;6.55;3.47;;;;;;;;;;6188663;23;20163;-93
2023/09/26 09:43:40;;;;;;;6.78;3.53;;;;;;;;;;6186446;22;20152;-92
2023/09/26 09:46:48;;;;;;;5.90;3.25;;;;;;;;;;6185919;23;20171;-96
2023/09/26 09:49:53;;;;;;;9.55;3.50;;;;;;;;;;6186154;22;20162;-93
2023/09/26 09:53:03;;;;;;;8.38;3.60;;;;;;;;;;6184461;22;20239;-93
2023/09/26 09:56:09;;;;;;;4.80;3.00;;;;;;;;;;6184448;23;20592;-92
2023/09/26 09:59:16;;;;;;;6.90;3.58;;;;;;;;;;6184053;23;20665;-93
2023/09/26 10:02:23;;;;;;;5.10;3.03;;;;;;;;;;6185204;23;20501;-95
2023/09/26 10:05:30;;;;;;;6.82;3.25;;;;;;;;;;6185583;22;20179;-95
2023/09/26 10:08:39;;;;;;;11.15;3.10;;;;;;;;;;6183887;23;20239;-92
2023/09/26 10:11:45;;;;;;;8.65;3.22;;;;;;;;;;6183901;23;20206;-94
2023/09/26 10:14:51;;;;;;;13.10;3.67;;;;;;;;;;6184468;23;20170;-94
2023/09/26 10:17:58;;;;;;;5.80;2.92;;;;;;;;;;6184377;23;20152;-94
2023/09/26 10:21:03;;;;;;;11.27;4.35;;;;;;;;;;6183213;23;20159;-92
2023/09/26 10:24:26;;;;;;;7.43;3.20;;;;;;;;;;6182430;23;20191;-95
2023/09/26 10:27:39;;;;;;;9.60;3.78;;;;;;;;;;6183519;23;20307;-93
2023/09/26 10:30:46;;;;;;;7.10;3.35;;;;;;;;;;6185923;23;20167;-92
2023/09/26 10:33:56;;;;;;;6.90;3.33;;;;;;;;;;6184485;23;20246;-94
2023/09/26 10:37:09;;;;;;;7.60;3.35;;;;;;;;;;6183242;23;20226;-90
2023/09/26 10:40:14;;;;;;;6.18;3.40;;;;;;;;;;6183704;23;20175;-94
2023/09/26 10:43:20;;;;;;;6.05;3.20;;;;;;;;;;6183768;23;20216;-94
2023/09/26 10:50:22;;;;;;;6.13;3.20;;;;;;;;;;6203575;23;20174;-92
2023/09/26 10:53:29;;;;;;;8.05;3.13;;;;;;;;;;6185175;23;20681;-95
2023/09/26 10:56:34;;;;;;;6.78;3.08;;;;;;;;;;6185947;23;20171;-95
2023/09/26 10:59:40;;;;;;;13.65;3.38;;;;;;;;;;6184482;23;20212;-93
2023/09/26 11:02:49;;;;;;;5.80;3.20;;;;;;;;;;6184955;23;20257;-94
2023/09/26 11:05:57;;;;;;;10.18;3.45;;;;;;;;;;6185834;22;20178;-94
2023/09/26 11:09:03;;;;;;;5.93;3.30;;;;;;;;;;6187725;23;20155;-95
2023/09/26 11:12:09;;;;;;;8.13;3.38;;;;;;;;;;6187998;23;20235;-94
2023/09/26 11:15:15;;;;;;;8.50;3.42;;;;;;;;;;6184940;23;20163;-93
2023/09/26 11:18:23;;;;;;;10.10;3.47;;;;;;;;;;6186877;23;20162;-92
2023/09/26 11:21:31;;;;;;;7.22;3.13;;;;;;;;;;6182336;23;20215;-90
2023/09/26 11:24:37;;;;;;;8.20;3.40;;;;;;;;;;6184101;23;20162;-93
2023/09/26 11:27:42;;;;;;;5.65;3.25;;;;;;;;;;6182849;23;20214;-90
2023/09/26 11:30:48;;;;;;;6.40;3.10;;;;;;;;;;6182602;23;20167;-91
2023/09/26 11:33:53;;;;;;;4.90;3.08;;;;;;;;;;6183644;23;20170;-92
2023/09/26 11:37:01;;;;;;;8.13;3.30;;;;;;;;;;6182764;23;20174;-93
2023/09/26 11:40:12;;;;;;;5.97;3.03;;;;;;;;;;6183057;23;20238;-92
2023/09/26 11:43:18;;;;;;;7.00;3.50;;;;;;;;;;6181947;23;20191;-90
2023/09/26 11:46:29;;;;;;;8.93;3.95;;;;;;;;;;6180933;23;20167;-91
2023/09/26 11:49:36;;;;;;;8.45;3.75;;;;;;;;;;6180160;23;20168;-89
2023/09/26 11:52:44;;;;;;;12.05;4.35;;;;;;;;;;6183097;23;20175;-89
2023/09/26 11:55:51;;;;;;;7.47;3.70;;;;;;;;;;6182441;23;20623;-88
2023/09/26 11:58:57;;;;;;;8.32;3.53;;;;;;;;;;6180904;23;20182;-89
2023/09/26 12:02:02;;;;;;;7.43;4.13;;;;;;;;;;6181326;23;20172;-90
2023/09/26 12:05:11;;;;;;;7.30;3.78;;;;;;;;;;6183039;23;20220;-92
2023/09/26 12:08:20;;;;;;;6.72;3.97;;;;;;;;;;6184341;22;20171;-89
2023/09/26 12:11:25;;;;;;;9.07;4.13;;;;;;;;;;6186285;23;20191;-90
2023/09/26 12:14:30;;;;;;;9.15;4.53;;;;;;;;;;6181066;23;20178;-91
2023/09/26 12:17:36;;;;;;;8.32;4.10;;;;;;;;;;6183513;23;20172;-89
2023/09/26 12:20:41;;;;;;;11.32;5.72;;;;;;;;;;6183796;23;20283;-93
2023/09/26 12:24:02;;;;;;;10.65;4.95;;;;;;;;;;6182443;23;20195;-92
2023/09/26 12:27:10;;;;;;;15.57;4.60;;;;;;;;;;6184196;23;20240;-89
2023/09/26 12:30:15;;;;;;;7.53;4.18;;;;;;;;;;6182694;23;20250;-89
2023/09/26 12:33:20;;;;;;;13.68;5.05;;;;;;;;;;6201353;23;20167;-89
2023/09/26 12:36:25;;;;;;;9.20;4.43;;;;;;;;;;6204919;23;20504;-93
2023/09/26 12:39:31;;;;;;;11.70;5.20;;;;;;;;;;6185877;23;20176;-91
2023/09/26 12:42:38;;;;;;;8.57;4.38;;;;;;;;;;6180592;23;20231;-89
2023/09/26 12:45:44;;;;;;;10.77;4.10;;;;;;;;;;6183065;23;20172;-91
2023/09/26 12:48:49;;;;;;;8.60;3.78;;;;;;;;;;6183425;23;20191;-89
2023/09/26 12:51:54;;;;;;;10.38;4.47;;;;;;;;;;6182721;23;20171;-89
2023/09/26 12:55:02;;;;;;;9.82;4.18;;;;;;;;;;6201273;23;20167;-91
2023/09/26 12:58:08;;;;;;;11.18;4.25;;;;;;;;;;6183289;23;20184;-92
2023/09/26 13:01:13;;;;;;;10.23;4.25;;;;;;;;;;6183574;23;20197;-93
2023/09/26 13:04:19;;;;;;;11.15;4.30;;;;;;;;;;6183416;23;20678;-91
2023/09/26 13:07:25;;;;;;;9.05;4.93;;;;;;;;;;6182069;23;20207;-92
2023/09/26 13:10:31;;;;;;;7.55;4.00;;;;;;;;;;6183870;22;20156;-93
2023/09/26 13:13:40;;;;;;;7.22;3.90;;;;;;;;;;6184411;23;20171;-90
2023/09/26 13:16:46;;;;;;;9.00;4.13;;;;;;;;;;6181569;23;20191;-90
2023/09/26 13:19:51;;;;;;;11.02;5.05;;;;;;;;;;6182603;23;20241;-93
2023/09/26 13:22:56;;;;;;;14.52;5.68;;;;;;;;;;6180527;23;20218;-90
2023/09/26 13:26:01;;;;;;;10.07;4.10;;;;;;;;;;6181247;23;20171;-92
2023/09/26 13:29:10;;;;;;;6.40;3.38;;;;;;;;;;6182397;23;20175;-92
2023/09/26 13:32:15;;;;;;;8.18;3.58;;;;;;;;;;6182401;23;20719;-93
2023/09/26 13:35:23;;;;;;;6.57;3.75;;;;;;;;;;6182814;23;20594;-89
2023/09/26 13:38:29;;;;;;;11.57;3.33;;;;;;;;;;6183618;23;20175;-90
2023/09/26 13:41:33;;;;;;;8.30;3.47;;;;;;;;;;6184907;23;20650;-91
2023/09/26 13:44:41;;;;;;;7.70;3.65;;;;;;;;;;6186480;23;20256;-90
2023/09/26 13:47:46;;;;;;;5.35;3.28;;;;;;;;;;6184064;22;20150;-90
2023/09/26 13:50:53;;;;;;;6.63;3.60;;;;;;;;;;6182016;23;20205;-90
2023/09/26 13:53:59;;;;;;;9.82;4.22;;;;;;;;;;6183013;23;20254;-89
2023/09/26 13:57:04;;;;;;;9.68;3.85;;;;;;;;;;6182856;23;20180;-93
2023/09/26 14:00:12;;;;;;;10.30;3.38;;;;;;;;;;6181920;23;20171;-93
2023/09/26 14:03:18;;;;;;;7.93;3.15;;;;;;;;;;6183009;23;20194;-92
2023/09/26 14:06:24;;;;;;;6.55;3.20;;;;;;;;;;6183239;23;20527;-89
2023/09/26 14:09:30;;;;;;;6.85;3.80;;;;;;;;;;6184495;23;20171;-91
2023/09/26 14:12:36;;;;;;;6.70;3.80;;;;;;;;;;6184558;22;20277;-94
2023/09/26 14:15:45;;;;;;;8.10;3.85;;;;;;;;;;6181945;23;20513;-90
2023/09/26 14:18:51;;;;;;;6.25;3.53;;;;;;;;;;6184437;23;20175;-93
2023/09/26 14:21:56;;;;;;;8.45;3.67;;;;;;;;;;6183571;23;20290;-93
2023/09/26 14:25:01;;;;;;;10.13;3.60;;;;;;;;;;6184451;23;20167;-92
2023/09/26 14:28:07;;;;;;;6.15;3.50;;;;;;;;;;6181678;23;20167;-94
2023/09/26 14:31:19;;;;;;;8.25;3.75;;;;;;;;;;6181175;23;20194;-93
2023/09/26 14:34:25;;;;;;;11.13;4.10;;;;;;;;;;6187523;23;20223;-93
2023/09/26 14:37:30;;;;;;;10.52;3.97;;;;;;;;;;6186656;23;20187;-92
2023/09/26 14:40:36;;;;;;;7.68;3.60;;;;;;;;;;6182904;23;20224;-93
2023/09/26 14:43:41;;;;;;;9.48;3.55;;;;;;;;;;6184638;23;20222;-92
2023/09/26 14:46:49;;;;;;;6.85;3.80;;;;;;;;;;6184782;23;20171;-89
2023/09/26 14:49:54;;;;;;;7.50;3.70;;;;;;;;;;6183703;23;20195;-90
2023/09/26 14:52:59;;;;;;;7.90;3.90;;;;;;;;;;6185572;23;20159;-93
2023/09/26 14:56:08;;;;;;;7.50;3.65;;;;;;;;;;6185123;23;20167;-93
2023/09/26 14:59:14;;;;;;;10.10;4.22;;;;;;;;;;6184650;22;20204;-92
2023/09/26 15:02:21;;;;;;;11.65;4.13;;;;;;;;;;6184803;23;20240;-93
2023/09/26 15:05:30;;;;;;;10.18;3.67;;;;;;;;;;6186094;22;20154;-89
2023/09/26 15:08:35;;;;;;;10.90;4.07;;;;;;;;;;6185293;22;20602;-91
2023/09/26 15:11:41;;;;;;;8.73;3.80;;;;;;;;;;6184103;23;20317;-93
2023/09/26 15:14:47;;;;;;;9.95;4.00;;;;;;;;;;6186281;23;20158;-94
2023/09/26 15:17:54;;;;;;;7.47;3.78;;;;;;;;;;6183862;23;20167;-92
2023/09/26 15:21:01;;;;;;;9.07;3.92;;;;;;;;;;6185295;22;20219;-90
2023/09/26 15:24:10;;;;;;;13.88;4.00;;;;;;;;;;6184656;22;20195;-94
2023/09/26 15:27:15;;;;;;;20.63;4.93;;;;;;;;;;6185917;23;20164;-91
2023/09/26 15:30:22;;;;;;;17.27;5.82;;;;;;;;;;6185932;23;20166;-90
2023/09/26 15:33:29;;;;;;;11.68;4.68;;;;;;;;;;6185342;22;20155;-92
2023/09/26 15:36:34;;;;;;;11.55;4.40;;;;;;;;;;6184019;22;20231;-92
2023/09/26 15:39:39;;;;;;;11.48;4.00;;;;;;;;;;6184986;23;20171;-92
2023/09/26 15:42:45;;;;;;;8.90;3.92;;;;;;;;;;6184820;23;20166;-93
2023/09/26 15:45:51;;;;;;;17.10;5.70;;;;;;;;;;6187008;22;20219;-88
2023/09/26 15:48:57;;;;;;;12.52;4.75;;;;;;;;;;6186084;23;20243;-90
2023/09/26 15:52:02;;;;;;;10.45;4.00;;;;;;;;;;6185177;23;20245;-92
2023/09/26 15:55:08;;;;;;;14.32;4.40;;;;;;;;;;6185376;23;20194;-89
2023/09/26 15:58:14;;;;;;;11.32;4.15;;;;;;;;;;6183701;23;20168;-93
2023/09/26 16:01:20;;;;;;;9.40;3.85;;;;;;;;;;6183544;23;20654;-92
2023/09/26 16:04:27;;;;;;;11.20;4.30;;;;;;;;;;6181496;22;20239;-90
2023/09/26 16:07:32;;;;;;;12.23;4.60;;;;;;;;;;6183645;22;20307;-89
2023/09/26 16:10:38;;;;;;;11.85;4.32;;;;;;;;;;6180973;23;20199;-89
2023/09/26 16:13:45;;;;;;;10.15;4.35;;;;;;;;;;6183607;23;20183;-91
2023/09/26 16:16:50;;;;;;;17.15;4.82;;;;;;;;;;6181428;23;20168;-90
2023/09/26 16:19:58;;;;;;;13.63;5.20;;;;;;;;;;6184110;22;20148;-93
2023/09/26 16:23:03;;;;;;;9.15;4.63;;;;;;;;;;6183875;22;20167;-90
2023/09/26 16:26:09;;;;;;;15.90;5.10;;;;;;;;;;6183955;23;20168;-89
2023/09/26 16:29:14;;;;;;;13.30;5.45;;;;;;;;;;6184330;23;20271;-92
2023/09/26 16:32:19;;;;;;;12.27;4.93;;;;;;;;;;6190772;23;20184;-90
2023/09/26 16:35:29;;;;;;;15.05;5.70;;;;;;;;;;6185267;22;20180;-89
2023/09/26 16:38:38;;;;;;;12.45;6.43;;;;;;;;;;6187918;23;20172;-95
2023/09/26 16:41:44;;;;;;;14.57;6.22;;;;;;;;;;6180609;23;20168;-89
2023/09/26 16:44:50;;;;;;;16.42;6.47;;;;;;;;;;6181522;23;20196;-89
2023/09/26 16:47:56;;;;;;;14.63;6.10;;;;;;;;;;6181940;23;20223;-89
2023/09/26 16:51:08;;;;;;;16.23;6.82;;;;;;;;;;6184346;23;20176;-90
2023/09/26 16:54:15;;;;;;;15.57;6.00;;;;;;;;;;6183163;23;20164;-92
2023/09/26 16:57:22;;;;;;;14.48;6.70;;;;;;;;;;6182959;23;20171;-90
2023/09/26 17:00:27;;;;;;;15.55;6.55;;;;;;;;;;6181156;23;20168;-90
2023/09/26 17:03:34;;;;;;;15.73;6.32;;;;;;;;;;6183659;23;20168;-90
2023/09/26 17:06:43;;;;;;;10.98;6.50;;;;;;;;;;6183640;23;20163;-90
2023/09/26 17:09:50;;;;;;;14.50;6.50;;;;;;;;;;6182810;23;20188;-91
2023/09/26 17:12:55;;;;;;;13.82;6.30;;;;;;;;;;6198474;22;20280;-92
2023/09/26 17:16:00;;;;;;;15.35;6.90;;;;;;;;;;6181245;23;20176;-91
2023/09/26 17:19:05;;;;;;;17.45;6.80;;;;;;;;;;6181897;23;20156;-92
2023/09/26 17:22:12;;;;;;;16.20;6.97;;;;;;;;;;6181688;23;20167;-91
2023/09/26 17:25:18;;;;;;;12.98;6.32;;;;;;;;;;6183224;23;20235;-91
2023/09/26 17:28:23;;;;;;;21.88;7.50;;;;;;;;;;6181520;23;20232;-91
2023/09/26 17:31:28;;;;;;;19.40;7.13;;;;;;;;;;6181580;23;20167;-90
2023/09/26 17:34:33;;;;;;;23.23;8.20;;;;;;;;;;6185660;23;20203;-89
2023/09/26 17:37:40;;;;;;;15.15;7.25;;;;;;;;;;6184252;22;20167;-89
2023/09/26 17:40:46;;;;;;;14.77;7.50;;;;;;;;;;6182662;23;20171;-89
2023/09/26 17:43:54;;;;;;;17.98;7.95;;;;;;;;;;6184215;23;20210;-90
2023/09/26 17:46:59;;;;;;;14.85;7.70;;;;;;;;;;6184297;23;20628;-89
2023/09/26 17:50:04;;;;;;;12.77;7.05;;;;;;;;;;6182379;23;20176;-89
2023/09/26 17:53:11;;;;;;;12.82;7.13;;;;;;;;;;6184907;23;20221;-88
2023/09/26 17:56:16;;;;;;;17.50;7.30;;;;;;;;;;6182132;23;20171;-90
2023/09/26 17:59:22;;;;;;;14.82;7.97;;;;;;;;;;6181443;23;20175;-90
2023/09/26 18:02:27;;;;;;;11.68;6.88;;;;;;;;;;6180304;23;20634;-92
2023/09/26 18:05:33;;;;;;;14.10;6.95;;;;;;;;;;6183894;23;20243;-91
2023/09/26 18:08:44;;;;;;;15.75;8.15;;;;;;;;;;6181072;23;20215;-90
2023/09/26 18:11:49;;;;;;;17.25;7.75;;;;;;;;;;6181817;23;20221;-90
2023/09/26 18:14:54;;;;;;;18.67;7.60;;;;;;;;;;6183696;23;20211;-93
2023/09/26 18:18:01;;;;;;;16.23;8.20;;;;;;;;;;6182063;23;20712;-92
2023/09/26 18:21:06;;;;;;;17.33;7.18;;;;;;;;;;6182405;23;20172;-93
2023/09/26 18:24:13;;;;;;;11.77;7.38;;;;;;;;;;6180187;23;20225;-89
2023/09/26 18:27:19;;;;;;;12.07;7.63;;;;;;;;;;6183022;23;20164;-92
2023/09/26 18:30:24;;;;;;;16.92;7.93;;;;;;;;;;6182629;23;20176;-93
2023/09/26 18:33:30;;;;;;;11.82;7.43;;;;;;;;;;6188339;23;20224;-92
2023/09/26 18:36:36;;;;;;;21.00;8.02;;;;;;;;;;6184667;23;20176;-92
2023/09/26 18:39:44;;;;;;;20.90;8.07;;;;;;;;;;6182072;23;20168;-90